sensor_id;sensor_type;location;lat;lon;timestamp;P1;durP1;ratioP1;P2;durP2;ratioP2
13222;SDS011;6676;45.192;5.722;2023-06-22T00:02:00;12.63;;;5.78;;
13222;SDS011;6676;45.192;5.722;2023-06-22T00:04:52;10.68;;;5.58;;
13222;SDS011;6676;45.192;5.722;2023-06-22T00:07:43;9.60;;;5.72;;
13222;SDS011;6676;45.192;5.722;2023-06-22T00:10:34;12.05;;;6.05;;
13222;SDS011;6676;45.192;5.722;2023-06-22T00:13:25;20.30;;;7.17;;
13222;SDS011;6676;45.192;5.722;2023-06-22T00:16:17;13.78;;;6.40;;
13222;SDS011;6676;45.192;5.722;2023-06-22T00:19:08;11.10;;;5.97;;
13222;SDS011;6676;45.192;5.722;2023-06-22T00:22:00;11.30;;;5.55;;
13222;SDS011;6676;45.192;5.722;2023-06-22T00:24:52;11.08;;;6.03;;
13222;SDS011;6676;45.192;5.722;2023-06-22T00:27:43;11.05;;;5.90;;
13222;SDS011;6676;45.192;5.722;2023-06-22T00:30:35;12.18;;;5.60;;
13222;SDS011;6676;45.192;5.722;2023-06-22T00:36:07;13.43;;;5.53;;
13222;SDS011;6676;45.192;5.722;2023-06-22T00:39:00;14.30;;;5.87;;
13222;SDS011;6676;45.192;5.722;2023-06-22T00:44:31;10.88;;;5.22;;
13222;SDS011;6676;45.192;5.722;2023-06-22T00:47:22;9.95;;;5.58;;
13222;SDS011;6676;45.192;5.722;2023-06-22T00:50:15;9.58;;;5.05;;
13222;SDS011;6676;45.192;5.722;2023-06-22T00:53:09;15.00;;;5.67;;
13222;SDS011;6676;45.192;5.722;2023-06-22T00:56:01;14.18;;;5.50;;
13222;SDS011;6676;45.192;5.722;2023-06-22T00:58:56;12.70;;;5.85;;
13222;SDS011;6676;45.192;5.722;2023-06-22T01:01:48;13.78;;;6.03;;
13222;SDS011;6676;45.192;5.722;2023-06-22T01:04:40;11.40;;;5.75;;
13222;SDS011;6676;45.192;5.722;2023-06-22T01:07:31;9.50;;;5.25;;
13222;SDS011;6676;45.192;5.722;2023-06-22T01:10:27;11.48;;;5.30;;
13222;SDS011;6676;45.192;5.722;2023-06-22T01:13:24;11.03;;;5.15;;
13222;SDS011;6676;45.192;5.722;2023-06-22T01:16:18;11.28;;;5.53;;
13222;SDS011;6676;45.192;5.722;2023-06-22T01:19:18;10.88;;;5.22;;
13222;SDS011;6676;45.192;5.722;2023-06-22T01:22:17;16.57;;;5.28;;
13222;SDS011;6676;45.192;5.722;2023-06-22T01:25:11;14.10;;;5.08;;
13222;SDS011;6676;45.192;5.722;2023-06-22T01:28:10;9.90;;;4.97;;
13222;SDS011;6676;45.192;5.722;2023-06-22T01:31:04;11.08;;;5.00;;
13222;SDS011;6676;45.192;5.722;2023-06-22T01:33:58;11.10;;;5.03;;
13222;SDS011;6676;45.192;5.722;2023-06-22T01:36:43;11.73;;;4.97;;
13222;SDS011;6676;45.192;5.722;2023-06-22T01:39:35;9.75;;;5.30;;
13222;SDS011;6676;45.192;5.722;2023-06-22T01:42:27;10.98;;;5.28;;
13222;SDS011;6676;45.192;5.722;2023-06-22T01:45:20;13.85;;;5.67;;
13222;SDS011;6676;45.192;5.722;2023-06-22T01:48:11;9.73;;;5.00;;
13222;SDS011;6676;45.192;5.722;2023-06-22T01:51:03;15.15;;;5.35;;
13222;SDS011;6676;45.192;5.722;2023-06-22T01:53:54;14.93;;;5.47;;
13222;SDS011;6676;45.192;5.722;2023-06-22T01:56:45;9.63;;;4.87;;
13222;SDS011;6676;45.192;5.722;2023-06-22T01:59:37;13.53;;;4.92;;
13222;SDS011;6676;45.192;5.722;2023-06-22T02:05:10;10.58;;;5.37;;
13222;SDS011;6676;45.192;5.722;2023-06-22T02:08:22;8.33;;;5.22;;
13222;SDS011;6676;45.192;5.722;2023-06-22T02:11:18;12.85;;;5.65;;
13222;SDS011;6676;45.192;5.722;2023-06-22T02:14:10;14.45;;;5.60;;
13222;SDS011;6676;45.192;5.722;2023-06-22T02:19:46;13.15;;;5.25;;
13222;SDS011;6676;45.192;5.722;2023-06-22T02:22:37;10.68;;;5.33;;
13222;SDS011;6676;45.192;5.722;2023-06-22T02:25:30;10.72;;;5.33;;
13222;SDS011;6676;45.192;5.722;2023-06-22T02:28:21;9.40;;;5.10;;
13222;SDS011;6676;45.192;5.722;2023-06-22T02:31:12;15.60;;;5.28;;
13222;SDS011;6676;45.192;5.722;2023-06-22T02:34:06;14.55;;;5.87;;
13222;SDS011;6676;45.192;5.722;2023-06-22T02:36:57;12.82;;;5.28;;
13222;SDS011;6676;45.192;5.722;2023-06-22T02:39:50;11.33;;;4.80;;
13222;SDS011;6676;45.192;5.722;2023-06-22T02:42:41;10.60;;;5.90;;
13222;SDS011;6676;45.192;5.722;2023-06-22T02:45:33;11.40;;;5.12;;
13222;SDS011;6676;45.192;5.722;2023-06-22T02:48:24;10.28;;;5.15;;
13222;SDS011;6676;45.192;5.722;2023-06-22T02:51:16;8.85;;;5.35;;
13222;SDS011;6676;45.192;5.722;2023-06-22T02:54:07;10.98;;;5.28;;
13222;SDS011;6676;45.192;5.722;2023-06-22T02:56:59;10.05;;;5.10;;
13222;SDS011;6676;45.192;5.722;2023-06-22T02:59:52;11.55;;;5.72;;
13222;SDS011;6676;45.192;5.722;2023-06-22T03:02:44;9.18;;;5.60;;
13222;SDS011;6676;45.192;5.722;2023-06-22T03:05:36;8.93;;;5.20;;
13222;SDS011;6676;45.192;5.722;2023-06-22T03:08:29;10.58;;;5.30;;
13222;SDS011;6676;45.192;5.722;2023-06-22T03:11:20;12.90;;;5.00;;
13222;SDS011;6676;45.192;5.722;2023-06-22T03:14:13;9.88;;;5.00;;
13222;SDS011;6676;45.192;5.722;2023-06-22T03:19:43;13.10;;;5.10;;
13222;SDS011;6676;45.192;5.722;2023-06-22T03:22:34;10.30;;;4.75;;
13222;SDS011;6676;45.192;5.722;2023-06-22T03:25:26;11.18;;;5.08;;
13222;SDS011;6676;45.192;5.722;2023-06-22T03:28:17;10.15;;;5.35;;
13222;SDS011;6676;45.192;5.722;2023-06-22T03:31:08;9.30;;;5.17;;
13222;SDS011;6676;45.192;5.722;2023-06-22T03:34:00;12.25;;;5.00;;
13222;SDS011;6676;45.192;5.722;2023-06-22T03:39:30;12.45;;;5.47;;
13222;SDS011;6676;45.192;5.722;2023-06-22T03:42:21;11.90;;;4.80;;
13222;SDS011;6676;45.192;5.722;2023-06-22T03:45:14;11.38;;;4.83;;
13222;SDS011;6676;45.192;5.722;2023-06-22T03:48:05;9.95;;;4.78;;
13222;SDS011;6676;45.192;5.722;2023-06-22T03:50:58;9.70;;;4.90;;
13222;SDS011;6676;45.192;5.722;2023-06-22T03:53:51;9.20;;;4.62;;
13222;SDS011;6676;45.192;5.722;2023-06-22T03:56:42;11.03;;;4.85;;
13222;SDS011;6676;45.192;5.722;2023-06-22T03:59:33;11.65;;;5.20;;
13222;SDS011;6676;45.192;5.722;2023-06-22T04:02:25;10.05;;;4.90;;
13222;SDS011;6676;45.192;5.722;2023-06-22T04:05:16;11.20;;;5.40;;
13222;SDS011;6676;45.192;5.722;2023-06-22T04:08:07;13.20;;;5.35;;
13222;SDS011;6676;45.192;5.722;2023-06-22T04:10:59;11.70;;;5.47;;
13222;SDS011;6676;45.192;5.722;2023-06-22T04:13:39;10.70;;;4.92;;
13222;SDS011;6676;45.192;5.722;2023-06-22T04:16:30;12.85;;;5.22;;
13222;SDS011;6676;45.192;5.722;2023-06-22T04:19:22;10.55;;;5.03;;
13222;SDS011;6676;45.192;5.722;2023-06-22T04:24:53;12.40;;;5.05;;
13222;SDS011;6676;45.192;5.722;2023-06-22T04:27:44;12.28;;;5.33;;
13222;SDS011;6676;45.192;5.722;2023-06-22T04:30:35;12.80;;;5.42;;
13222;SDS011;6676;45.192;5.722;2023-06-22T04:41:52;11.40;;;5.33;;
13222;SDS011;6676;45.192;5.722;2023-06-22T04:44:45;13.58;;;5.70;;
13222;SDS011;6676;45.192;5.722;2023-06-22T04:47:36;13.90;;;6.03;;
13222;SDS011;6676;45.192;5.722;2023-06-22T04:50:28;12.93;;;4.67;;
13222;SDS011;6676;45.192;5.722;2023-06-22T04:53:19;10.25;;;5.40;;
13222;SDS011;6676;45.192;5.722;2023-06-22T04:56:10;13.00;;;5.25;;
13222;SDS011;6676;45.192;5.722;2023-06-22T04:59:03;11.33;;;5.65;;
13222;SDS011;6676;45.192;5.722;2023-06-22T05:01:54;11.83;;;5.17;;
13222;SDS011;6676;45.192;5.722;2023-06-22T05:04:46;10.55;;;5.60;;
13222;SDS011;6676;45.192;5.722;2023-06-22T05:10:20;11.85;;;5.50;;
13222;SDS011;6676;45.192;5.722;2023-06-22T05:13:11;13.10;;;5.53;;
13222;SDS011;6676;45.192;5.722;2023-06-22T05:16:03;11.97;;;5.72;;
13222;SDS011;6676;45.192;5.722;2023-06-22T05:18:55;13.35;;;5.78;;
13222;SDS011;6676;45.192;5.722;2023-06-22T05:21:46;15.53;;;5.67;;
13222;SDS011;6676;45.192;5.722;2023-06-22T05:24:37;10.88;;;5.80;;
13222;SDS011;6676;45.192;5.722;2023-06-22T05:30:08;12.03;;;5.65;;
13222;SDS011;6676;45.192;5.722;2023-06-22T05:33:00;13.83;;;6.03;;
13222;SDS011;6676;45.192;5.722;2023-06-22T05:35:51;13.62;;;6.40;;
13222;SDS011;6676;45.192;5.722;2023-06-22T05:41:22;10.18;;;5.28;;
13222;SDS011;6676;45.192;5.722;2023-06-22T05:44:14;10.35;;;5.40;;
13222;SDS011;6676;45.192;5.722;2023-06-22T05:47:05;14.40;;;5.20;;
13222;SDS011;6676;45.192;5.722;2023-06-22T05:52:36;11.83;;;5.58;;
13222;SDS011;6676;45.192;5.722;2023-06-22T05:55:27;12.65;;;5.92;;
13222;SDS011;6676;45.192;5.722;2023-06-22T05:58:20;12.00;;;5.78;;
13222;SDS011;6676;45.192;5.722;2023-06-22T06:01:11;13.60;;;5.50;;
13222;SDS011;6676;45.192;5.722;2023-06-22T06:04:04;14.58;;;5.12;;
13222;SDS011;6676;45.192;5.722;2023-06-22T06:09:34;13.25;;;4.97;;
13222;SDS011;6676;45.192;5.722;2023-06-22T06:12:26;11.65;;;5.30;;
13222;SDS011;6676;45.192;5.722;2023-06-22T06:15:17;9.95;;;5.20;;
13222;SDS011;6676;45.192;5.722;2023-06-22T06:18:09;18.95;;;5.45;;
13222;SDS011;6676;45.192;5.722;2023-06-22T06:21:00;11.93;;;5.58;;
13222;SDS011;6676;45.192;5.722;2023-06-22T06:23:52;12.85;;;5.60;;
13222;SDS011;6676;45.192;5.722;2023-06-22T06:26:43;15.63;;;5.90;;
13222;SDS011;6676;45.192;5.722;2023-06-22T06:29:35;14.10;;;5.95;;
13222;SDS011;6676;45.192;5.722;2023-06-22T06:32:27;14.05;;;5.55;;
13222;SDS011;6676;45.192;5.722;2023-06-22T06:35:19;14.28;;;6.12;;
13222;SDS011;6676;45.192;5.722;2023-06-22T06:38:11;11.33;;;6.00;;
13222;SDS011;6676;45.192;5.722;2023-06-22T06:41:02;13.93;;;6.35;;
13222;SDS011;6676;45.192;5.722;2023-06-22T06:43:54;9.90;;;5.70;;
13222;SDS011;6676;45.192;5.722;2023-06-22T06:46:45;16.62;;;5.97;;
13222;SDS011;6676;45.192;5.722;2023-06-22T06:49:36;13.25;;;5.42;;
13222;SDS011;6676;45.192;5.722;2023-06-22T06:52:27;13.25;;;6.83;;
13222;SDS011;6676;45.192;5.722;2023-06-22T06:55:19;14.07;;;6.20;;
13222;SDS011;6676;45.192;5.722;2023-06-22T07:00:50;18.98;;;6.58;;
13222;SDS011;6676;45.192;5.722;2023-06-22T07:03:42;13.48;;;5.70;;
13222;SDS011;6676;45.192;5.722;2023-06-22T07:06:34;12.70;;;6.08;;
13222;SDS011;6676;45.192;5.722;2023-06-22T07:12:06;13.83;;;5.72;;
13222;SDS011;6676;45.192;5.722;2023-06-22T07:15:01;13.48;;;5.25;;
13222;SDS011;6676;45.192;5.722;2023-06-22T07:17:53;15.40;;;4.97;;
13222;SDS011;6676;45.192;5.722;2023-06-22T07:20:45;12.95;;;5.60;;
13222;SDS011;6676;45.192;5.722;2023-06-22T07:26:15;14.23;;;5.12;;
13222;SDS011;6676;45.192;5.722;2023-06-22T07:31:45;14.78;;;4.28;;
13222;SDS011;6676;45.192;5.722;2023-06-22T07:34:38;13.03;;;5.17;;
13222;SDS011;6676;45.192;5.722;2023-06-22T07:37:31;16.40;;;3.90;;
13222;SDS011;6676;45.192;5.722;2023-06-22T07:40:23;10.08;;;3.70;;
13222;SDS011;6676;45.192;5.722;2023-06-22T07:43:04;10.18;;;3.35;;
13222;SDS011;6676;45.192;5.722;2023-06-22T07:45:55;10.13;;;3.92;;
13222;SDS011;6676;45.192;5.722;2023-06-22T07:48:47;12.28;;;3.47;;
13222;SDS011;6676;45.192;5.722;2023-06-22T07:51:40;13.20;;;3.58;;
13222;SDS011;6676;45.192;5.722;2023-06-22T07:54:20;8.78;;;3.00;;
13222;SDS011;6676;45.192;5.722;2023-06-22T07:57:12;12.85;;;3.55;;
13222;SDS011;6676;45.192;5.722;2023-06-22T07:59:52;12.03;;;3.30;;
13222;SDS011;6676;45.192;5.722;2023-06-22T08:02:44;9.10;;;2.58;;
13222;SDS011;6676;45.192;5.722;2023-06-22T08:05:36;9.78;;;3.15;;
13222;SDS011;6676;45.192;5.722;2023-06-22T08:08:28;9.38;;;3.05;;
13222;SDS011;6676;45.192;5.722;2023-06-22T08:11:20;10.10;;;3.17;;
13222;SDS011;6676;45.192;5.722;2023-06-22T08:16:53;6.83;;;2.77;;
13222;SDS011;6676;45.192;5.722;2023-06-22T08:19:44;12.28;;;3.37;;
13222;SDS011;6676;45.192;5.722;2023-06-22T08:22:49;8.30;;;2.55;;
13222;SDS011;6676;45.192;5.722;2023-06-22T08:25:42;10.95;;;3.45;;
13222;SDS011;6676;45.192;5.722;2023-06-22T08:31:25;10.32;;;2.92;;
13222;SDS011;6676;45.192;5.722;2023-06-22T08:34:20;12.20;;;3.12;;
13222;SDS011;6676;45.192;5.722;2023-06-22T08:39:52;10.25;;;2.83;;
13222;SDS011;6676;45.192;5.722;2023-06-22T08:42:43;9.48;;;3.40;;
13222;SDS011;6676;45.192;5.722;2023-06-22T08:45:35;10.38;;;2.72;;
13222;SDS011;6676;45.192;5.722;2023-06-22T08:48:29;8.23;;;2.70;;
13222;SDS011;6676;45.192;5.722;2023-06-22T08:51:20;14.65;;;3.33;;
13222;SDS011;6676;45.192;5.722;2023-06-22T08:56:51;7.95;;;2.52;;
13222;SDS011;6676;45.192;5.722;2023-06-22T08:59:42;12.07;;;3.10;;
13222;SDS011;6676;45.192;5.722;2023-06-22T09:02:23;12.23;;;2.85;;
13222;SDS011;6676;45.192;5.722;2023-06-22T09:05:28;9.88;;;3.17;;
13222;SDS011;6676;45.192;5.722;2023-06-22T09:08:22;6.60;;;2.60;;
13222;SDS011;6676;45.192;5.722;2023-06-22T09:11:14;10.50;;;2.75;;
13222;SDS011;6676;45.192;5.722;2023-06-22T09:16:44;10.15;;;3.17;;
13222;SDS011;6676;45.192;5.722;2023-06-22T09:19:37;10.30;;;2.55;;
13222;SDS011;6676;45.192;5.722;2023-06-22T09:25:08;8.65;;;2.92;;
13222;SDS011;6676;45.192;5.722;2023-06-22T09:30:38;8.83;;;2.55;;
13222;SDS011;6676;45.192;5.722;2023-06-22T09:33:33;13.60;;;3.42;;
13222;SDS011;6676;45.192;5.722;2023-06-22T09:36:27;9.58;;;3.22;;
13222;SDS011;6676;45.192;5.722;2023-06-22T09:39:18;11.50;;;3.60;;
13222;SDS011;6676;45.192;5.722;2023-06-22T09:42:10;12.50;;;3.45;;
13222;SDS011;6676;45.192;5.722;2023-06-22T09:45:02;11.60;;;3.55;;
13222;SDS011;6676;45.192;5.722;2023-06-22T09:50:34;10.15;;;3.10;;
13222;SDS011;6676;45.192;5.722;2023-06-22T09:53:25;9.95;;;3.17;;
13222;SDS011;6676;45.192;5.722;2023-06-22T09:56:18;12.33;;;3.25;;
13222;SDS011;6676;45.192;5.722;2023-06-22T09:59:09;10.08;;;3.67;;
13222;SDS011;6676;45.192;5.722;2023-06-22T10:02:02;12.95;;;2.95;;
13222;SDS011;6676;45.192;5.722;2023-06-22T10:04:54;10.55;;;3.90;;
13222;SDS011;6676;45.192;5.722;2023-06-22T10:07:46;10.60;;;3.58;;
13222;SDS011;6676;45.192;5.722;2023-06-22T10:10:26;8.75;;;3.67;;
13222;SDS011;6676;45.192;5.722;2023-06-22T10:13:17;9.85;;;3.60;;
13222;SDS011;6676;45.192;5.722;2023-06-22T10:16:11;11.30;;;4.08;;
13222;SDS011;6676;45.192;5.722;2023-06-22T10:19:02;11.22;;;4.12;;
13222;SDS011;6676;45.192;5.722;2023-06-22T10:21:41;13.58;;;4.50;;
13222;SDS011;6676;45.192;5.722;2023-06-22T10:24:33;12.37;;;4.60;;
13222;SDS011;6676;45.192;5.722;2023-06-22T10:27:24;13.48;;;4.58;;
13222;SDS011;6676;45.192;5.722;2023-06-22T10:30:16;10.93;;;4.05;;
13222;SDS011;6676;45.192;5.722;2023-06-22T10:33:07;14.70;;;4.58;;
13222;SDS011;6676;45.192;5.722;2023-06-22T10:35:58;15.88;;;4.40;;
13222;SDS011;6676;45.192;5.722;2023-06-22T10:38:51;13.03;;;4.35;;
13222;SDS011;6676;45.192;5.722;2023-06-22T10:41:44;17.42;;;5.37;;
13222;SDS011;6676;45.192;5.722;2023-06-22T10:44:35;15.35;;;4.47;;
13222;SDS011;6676;45.192;5.722;2023-06-22T10:47:27;20.50;;;4.45;;
13222;SDS011;6676;45.192;5.722;2023-06-22T10:50:19;12.45;;;3.55;;
13222;SDS011;6676;45.192;5.722;2023-06-22T10:55:53;11.93;;;3.50;;
13222;SDS011;6676;45.192;5.722;2023-06-22T10:58:45;9.20;;;3.30;;
13222;SDS011;6676;45.192;5.722;2023-06-22T11:01:37;10.03;;;3.08;;
13222;SDS011;6676;45.192;5.722;2023-06-22T11:04:28;8.73;;;3.37;;
13222;SDS011;6676;45.192;5.722;2023-06-22T11:07:19;9.55;;;2.92;;
13222;SDS011;6676;45.192;5.722;2023-06-22T11:10:05;8.30;;;3.47;;
13222;SDS011;6676;45.192;5.722;2023-06-22T11:15:37;9.95;;;2.95;;
13222;SDS011;6676;45.192;5.722;2023-06-22T11:24:45;8.65;;;2.67;;
13222;SDS011;6676;45.192;5.722;2023-06-22T11:27:38;10.32;;;3.15;;
13222;SDS011;6676;45.192;5.722;2023-06-22T11:30:31;9.05;;;3.15;;
13222;SDS011;6676;45.192;5.722;2023-06-22T11:33:37;8.80;;;3.05;;
13222;SDS011;6676;45.192;5.722;2023-06-22T11:36:29;8.98;;;2.92;;
13222;SDS011;6676;45.192;5.722;2023-06-22T11:39:23;8.43;;;3.17;;
13222;SDS011;6676;45.192;5.722;2023-06-22T11:45:10;10.18;;;3.02;;
13222;SDS011;6676;45.192;5.722;2023-06-22T11:50:40;14.55;;;3.50;;
13222;SDS011;6676;45.192;5.722;2023-06-22T11:53:31;9.03;;;3.60;;
13222;SDS011;6676;45.192;5.722;2023-06-22T11:56:22;7.47;;;2.85;;
13222;SDS011;6676;45.192;5.722;2023-06-22T12:01:53;6.90;;;2.90;;
13222;SDS011;6676;45.192;5.722;2023-06-22T12:07:23;6.47;;;2.40;;
13222;SDS011;6676;45.192;5.722;2023-06-22T12:10:15;6.50;;;2.50;;
13222;SDS011;6676;45.192;5.722;2023-06-22T12:13:07;8.23;;;2.22;;
13222;SDS011;6676;45.192;5.722;2023-06-22T12:15:58;10.60;;;2.95;;
13222;SDS011;6676;45.192;5.722;2023-06-22T12:18:39;7.15;;;2.35;;
13222;SDS011;6676;45.192;5.722;2023-06-22T12:21:30;9.15;;;3.25;;
13222;SDS011;6676;45.192;5.722;2023-06-22T12:24:21;6.67;;;2.77;;
13222;SDS011;6676;45.192;5.722;2023-06-22T12:27:13;10.05;;;3.00;;
13222;SDS011;6676;45.192;5.722;2023-06-22T12:29:53;7.55;;;2.72;;
13222;SDS011;6676;45.192;5.722;2023-06-22T12:32:44;10.28;;;3.12;;
13222;SDS011;6676;45.192;5.722;2023-06-22T12:35:36;7.12;;;3.00;;
13222;SDS011;6676;45.192;5.722;2023-06-22T12:41:06;10.18;;;2.83;;
13222;SDS011;6676;45.192;5.722;2023-06-22T12:43:57;7.65;;;3.05;;
13222;SDS011;6676;45.192;5.722;2023-06-22T12:46:48;10.03;;;2.77;;
13222;SDS011;6676;45.192;5.722;2023-06-22T12:49:40;10.25;;;2.98;;
13222;SDS011;6676;45.192;5.722;2023-06-22T12:55:10;11.80;;;3.40;;
13222;SDS011;6676;45.192;5.722;2023-06-22T13:00:40;8.50;;;2.85;;
13222;SDS011;6676;45.192;5.722;2023-06-22T13:03:31;11.60;;;3.40;;
13222;SDS011;6676;45.192;5.722;2023-06-22T13:06:22;11.88;;;3.42;;
13222;SDS011;6676;45.192;5.722;2023-06-22T13:09:14;9.08;;;3.40;;
13222;SDS011;6676;45.192;5.722;2023-06-22T13:12:09;6.70;;;3.02;;
13222;SDS011;6676;45.192;5.722;2023-06-22T13:15:00;7.62;;;3.10;;
13222;SDS011;6676;45.192;5.722;2023-06-22T13:20:30;9.28;;;3.67;;
13222;SDS011;6676;45.192;5.722;2023-06-22T13:23:21;6.10;;;2.85;;
13222;SDS011;6676;45.192;5.722;2023-06-22T13:26:13;9.50;;;3.30;;
13222;SDS011;6676;45.192;5.722;2023-06-22T13:29:04;8.43;;;3.37;;
13222;SDS011;6676;45.192;5.722;2023-06-22T13:31:56;6.20;;;3.02;;
13222;SDS011;6676;45.192;5.722;2023-06-22T13:34:47;7.90;;;3.70;;
13222;SDS011;6676;45.192;5.722;2023-06-22T13:40:19;12.13;;;4.72;;
13222;SDS011;6676;45.192;5.722;2023-06-22T13:43:10;12.23;;;3.80;;
13222;SDS011;6676;45.192;5.722;2023-06-22T13:45:50;10.60;;;3.33;;
13222;SDS011;6676;45.192;5.722;2023-06-22T13:48:42;15.25;;;3.77;;
13222;SDS011;6676;45.192;5.722;2023-06-22T13:51:33;12.65;;;2.12;;
13222;SDS011;6676;45.192;5.722;2023-06-22T13:54:24;8.58;;;2.27;;
13222;SDS011;6676;45.192;5.722;2023-06-22T13:57:17;8.38;;;1.25;;
13222;SDS011;6676;45.192;5.722;2023-06-22T14:00:10;9.08;;;1.37;;
13222;SDS011;6676;45.192;5.722;2023-06-22T14:05:41;4.17;;;1.30;;
13222;SDS011;6676;45.192;5.722;2023-06-22T14:08:32;7.92;;;1.10;;
13222;SDS011;6676;45.192;5.722;2023-06-22T14:11:25;5.90;;;1.05;;
13222;SDS011;6676;45.192;5.722;2023-06-22T14:14:16;5.45;;;1.20;;
13222;SDS011;6676;45.192;5.722;2023-06-22T14:17:08;2.40;;;0.85;;
13222;SDS011;6676;45.192;5.722;2023-06-22T14:20:00;1.80;;;0.80;;
13222;SDS011;6676;45.192;5.722;2023-06-22T14:22:52;2.12;;;0.98;;
13222;SDS011;6676;45.192;5.722;2023-06-22T14:25:44;4.22;;;1.12;;
13222;SDS011;6676;45.192;5.722;2023-06-22T14:28:35;4.58;;;1.65;;
13222;SDS011;6676;45.192;5.722;2023-06-22T14:34:06;3.35;;;1.37;;
13222;SDS011;6676;45.192;5.722;2023-06-22T14:36:57;4.20;;;1.30;;
13222;SDS011;6676;45.192;5.722;2023-06-22T14:39:48;3.50;;;1.40;;
13222;SDS011;6676;45.192;5.722;2023-06-22T14:42:40;2.50;;;1.10;;
13222;SDS011;6676;45.192;5.722;2023-06-22T14:45:31;3.95;;;1.25;;
13222;SDS011;6676;45.192;5.722;2023-06-22T14:51:00;2.87;;;1.57;;
13222;SDS011;6676;45.192;5.722;2023-06-22T14:53:52;2.33;;;1.12;;
13222;SDS011;6676;45.192;5.722;2023-06-22T14:56:43;5.33;;;1.70;;
13222;SDS011;6676;45.192;5.722;2023-06-22T15:02:14;8.08;;;1.90;;
13222;SDS011;6676;45.192;5.722;2023-06-22T15:05:06;6.42;;;1.95;;
13222;SDS011;6676;45.192;5.722;2023-06-22T15:07:58;5.92;;;1.98;;
13222;SDS011;6676;45.192;5.722;2023-06-22T15:10:49;3.42;;;1.57;;
13222;SDS011;6676;45.192;5.722;2023-06-22T15:13:41;7.00;;;2.85;;
13222;SDS011;6676;45.192;5.722;2023-06-22T15:16:33;4.03;;;1.75;;
13222;SDS011;6676;45.192;5.722;2023-06-22T15:19:24;3.98;;;1.47;;
13222;SDS011;6676;45.192;5.722;2023-06-22T15:24:53;4.95;;;2.65;;
13222;SDS011;6676;45.192;5.722;2023-06-22T15:27:46;3.67;;;1.60;;
13222;SDS011;6676;45.192;5.722;2023-06-22T15:30:38;3.65;;;1.60;;
13222;SDS011;6676;45.192;5.722;2023-06-22T15:33:30;3.15;;;1.40;;
13222;SDS011;6676;45.192;5.722;2023-06-22T15:36:21;2.25;;;1.27;;
13222;SDS011;6676;45.192;5.722;2023-06-22T15:39:13;4.47;;;1.95;;
13222;SDS011;6676;45.192;5.722;2023-06-22T15:42:06;4.83;;;1.98;;
13222;SDS011;6676;45.192;5.722;2023-06-22T15:44:57;5.37;;;2.40;;
13222;SDS011;6676;45.192;5.722;2023-06-22T15:50:28;4.47;;;2.02;;
13222;SDS011;6676;45.192;5.722;2023-06-22T15:56:02;5.10;;;2.50;;
13222;SDS011;6676;45.192;5.722;2023-06-22T15:58:53;5.20;;;1.77;;
13222;SDS011;6676;45.192;5.722;2023-06-22T16:01:45;6.55;;;1.85;;
13222;SDS011;6676;45.192;5.722;2023-06-22T16:07:14;6.25;;;2.40;;
13222;SDS011;6676;45.192;5.722;2023-06-22T16:10:06;3.70;;;1.92;;
13222;SDS011;6676;45.192;5.722;2023-06-22T16:12:59;3.85;;;2.05;;
13222;SDS011;6676;45.192;5.722;2023-06-22T16:15:50;3.98;;;2.05;;
13222;SDS011;6676;45.192;5.722;2023-06-22T16:21:20;5.47;;;4.17;;
13222;SDS011;6676;45.192;5.722;2023-06-22T16:24:12;3.40;;;2.00;;
13222;SDS011;6676;45.192;5.722;2023-06-22T16:29:41;3.75;;;1.62;;
13222;SDS011;6676;45.192;5.722;2023-06-22T16:32:33;2.62;;;1.45;;
13222;SDS011;6676;45.192;5.722;2023-06-22T16:38:02;2.70;;;1.22;;
13222;SDS011;6676;45.192;5.722;2023-06-22T16:40:54;4.25;;;1.70;;
13222;SDS011;6676;45.192;5.722;2023-06-22T16:43:45;2.30;;;1.25;;
13222;SDS011;6676;45.192;5.722;2023-06-22T16:46:36;2.62;;;1.40;;
13222;SDS011;6676;45.192;5.722;2023-06-22T16:52:08;2.22;;;1.77;;
13222;SDS011;6676;45.192;5.722;2023-06-22T16:57:39;4.30;;;2.52;;
13222;SDS011;6676;45.192;5.722;2023-06-22T17:00:31;4.97;;;2.35;;
13222;SDS011;6676;45.192;5.722;2023-06-22T17:03:26;4.12;;;2.22;;
13222;SDS011;6676;45.192;5.722;2023-06-22T17:06:18;3.58;;;1.90;;
13222;SDS011;6676;45.192;5.722;2023-06-22T17:09:11;4.95;;;2.00;;
13222;SDS011;6676;45.192;5.722;2023-06-22T17:14:43;4.42;;;2.02;;
13222;SDS011;6676;45.192;5.722;2023-06-22T17:17:35;3.75;;;1.90;;
13222;SDS011;6676;45.192;5.722;2023-06-22T17:20:29;3.00;;;1.47;;
13222;SDS011;6676;45.192;5.722;2023-06-22T17:23:20;5.33;;;1.70;;
13222;SDS011;6676;45.192;5.722;2023-06-22T17:26:13;3.85;;;1.72;;
13222;SDS011;6676;45.192;5.722;2023-06-22T17:31:46;3.47;;;1.95;;
13222;SDS011;6676;45.192;5.722;2023-06-22T17:37:17;3.92;;;2.20;;
13222;SDS011;6676;45.192;5.722;2023-06-22T17:39:57;3.27;;;1.77;;
13222;SDS011;6676;45.192;5.722;2023-06-22T17:58:31;5.05;;;3.15;;
13222;SDS011;6676;45.192;5.722;2023-06-22T18:01:29;6.97;;;2.67;;
13222;SDS011;6676;45.192;5.722;2023-06-22T18:04:25;5.08;;;2.40;;
13222;SDS011;6676;45.192;5.722;2023-06-22T18:09:54;3.65;;;2.10;;
13222;SDS011;6676;45.192;5.722;2023-06-22T18:12:48;3.98;;;2.30;;
13222;SDS011;6676;45.192;5.722;2023-06-22T18:15:41;2.70;;;2.10;;
13222;SDS011;6676;45.192;5.722;2023-06-22T18:18:33;3.10;;;1.90;;
13222;SDS011;6676;45.192;5.722;2023-06-22T18:21:24;5.40;;;3.10;;
13222;SDS011;6676;45.192;5.722;2023-06-22T18:24:16;4.87;;;1.92;;
13222;SDS011;6676;45.192;5.722;2023-06-22T18:27:09;4.60;;;2.25;;
13222;SDS011;6676;45.192;5.722;2023-06-22T18:29:50;2.98;;;1.57;;
13222;SDS011;6676;45.192;5.722;2023-06-22T18:35:22;4.42;;;1.80;;
13222;SDS011;6676;45.192;5.722;2023-06-22T18:40:53;3.12;;;2.00;;
13222;SDS011;6676;45.192;5.722;2023-06-22T18:43:45;3.70;;;2.10;;
13222;SDS011;6676;45.192;5.722;2023-06-22T18:46:38;5.92;;;2.02;;
13222;SDS011;6676;45.192;5.722;2023-06-22T18:49:31;3.58;;;2.37;;
13222;SDS011;6676;45.192;5.722;2023-06-22T18:55:03;5.05;;;2.65;;
13222;SDS011;6676;45.192;5.722;2023-06-22T18:58:12;3.98;;;2.08;;
13222;SDS011;6676;45.192;5.722;2023-06-22T19:01:15;4.65;;;2.15;;
13222;SDS011;6676;45.192;5.722;2023-06-22T19:06:57;4.12;;;2.30;;
13222;SDS011;6676;45.192;5.722;2023-06-22T19:13:27;4.40;;;2.17;;
13222;SDS011;6676;45.192;5.722;2023-06-22T19:16:37;3.37;;;1.90;;
13222;SDS011;6676;45.192;5.722;2023-06-22T19:19:36;5.55;;;2.50;;
13222;SDS011;6676;45.192;5.722;2023-06-22T19:25:25;2.67;;;1.60;;
13222;SDS011;6676;45.192;5.722;2023-06-22T19:31:22;4.17;;;1.67;;
13222;SDS011;6676;45.192;5.722;2023-06-22T19:34:16;3.50;;;1.67;;
13222;SDS011;6676;45.192;5.722;2023-06-22T19:39:53;4.12;;;1.90;;
13222;SDS011;6676;45.192;5.722;2023-06-22T19:45:24;3.60;;;1.27;;
13222;SDS011;6676;45.192;5.722;2023-06-22T19:48:24;5.20;;;2.05;;
13222;SDS011;6676;45.192;5.722;2023-06-22T19:51:17;4.75;;;2.20;;
13222;SDS011;6676;45.192;5.722;2023-06-22T19:54:03;1.90;;;1.60;;
13222;SDS011;6676;45.192;5.722;2023-06-22T19:56:55;3.95;;;1.60;;
13222;SDS011;6676;45.192;5.722;2023-06-22T19:59:48;4.67;;;1.75;;
13222;SDS011;6676;45.192;5.722;2023-06-22T20:05:20;2.10;;;1.22;;
13222;SDS011;6676;45.192;5.722;2023-06-22T20:08:12;5.10;;;1.77;;
13222;SDS011;6676;45.192;5.722;2023-06-22T20:11:04;2.40;;;1.70;;
13222;SDS011;6676;45.192;5.722;2023-06-22T20:16:37;5.53;;;1.87;;
13222;SDS011;6676;45.192;5.722;2023-06-22T20:19:38;2.77;;;1.80;;
13222;SDS011;6676;45.192;5.722;2023-06-22T20:25:10;2.92;;;1.52;;
13222;SDS011;6676;45.192;5.722;2023-06-22T20:28:04;3.58;;;2.00;;
13222;SDS011;6676;45.192;5.722;2023-06-22T20:31:02;2.62;;;1.77;;
13222;SDS011;6676;45.192;5.722;2023-06-22T20:33:43;2.37;;;1.67;;
13222;SDS011;6676;45.192;5.722;2023-06-22T20:36:34;2.35;;;1.75;;
13222;SDS011;6676;45.192;5.722;2023-06-22T20:39:26;2.45;;;1.62;;
13222;SDS011;6676;45.192;5.722;2023-06-22T20:44:59;3.52;;;1.60;;
13222;SDS011;6676;45.192;5.722;2023-06-22T20:47:52;1.90;;;1.32;;
13222;SDS011;6676;45.192;5.722;2023-06-22T20:50:45;3.27;;;1.45;;